Time;durP1;ratioP1;P1;durP2;ratioP2;P2;SDS_P1;SDS_P2;PMS_P1;PMS_P2;Temp;Humidity;BMP_temperature;BMP_pressure;BME280_temperature;BME280_humidity;BME280_pressure;Samples;Min_cycle;Max_cycle;Signal;HPM_P1;HPM_P2
2022/03/16 00:02:23;;;;;;;34.92;19.42;;;4.00;99.90;;;;;;5009142;28;20049;-78
2022/03/16 00:04:53;;;;;;;33.92;20.15;;;4.00;99.90;;;;;;5009482;28;20072;-79
2022/03/16 00:07:20;;;;;;;36.00;20.33;;;4.00;99.90;;;;;;5011176;28;20050;-79
2022/03/16 00:09:47;;;;;;;34.67;21.60;;;4.00;99.90;;;;;;5011142;28;20025;-79
2022/03/16 00:12:14;;;;;;;38.97;21.35;;;4.00;99.90;;;;;;5026978;28;20029;-79
2022/03/16 00:14:41;;;;;;;37.72;21.63;;;3.90;99.90;;;;;;5009989;28;20501;-79
2022/03/16 00:17:07;;;;;;;39.03;22.52;;;4.00;99.90;;;;;;5009943;28;20034;-79
2022/03/16 00:19:33;;;;;;;39.25;23.00;;;4.00;99.90;;;;;;5007688;28;20040;-78
2022/03/16 00:22:00;;;;;;;44.75;24.25;;;4.00;99.90;;;;;;5010048;28;20482;-79
2022/03/16 00:24:27;;;;;;;46.70;24.77;;;4.00;99.90;;;;;;5008632;28;20051;-79
2022/03/16 00:26:53;;;;;;;50.47;27.98;;;4.10;99.90;;;;;;5009768;28;20034;-79
2022/03/16 00:29:18;;;;;;;51.95;27.30;;;4.10;99.90;;;;;;5007711;28;20443;-79
2022/03/16 00:31:44;;;;;;;50.13;27.90;;;4.20;99.90;;;;;;5009128;28;20052;-78
2022/03/16 00:34:10;;;;;;;47.63;26.13;;;4.30;99.90;;;;;;5008873;28;20042;-78
2022/03/16 00:36:36;;;;;;;49.03;25.88;;;4.30;99.90;;;;;;5009098;28;20087;-78
2022/03/16 00:39:03;;;;;;;40.40;24.15;;;4.30;99.90;;;;;;5010521;28;20420;-78
2022/03/16 00:41:28;;;;;;;44.22;25.38;;;4.20;99.90;;;;;;5008887;28;20065;-79
2022/03/16 00:43:54;;;;;;;44.30;25.85;;;4.10;99.90;;;;;;5009310;28;20119;-79
2022/03/16 00:46:20;;;;;;;42.65;24.80;;;4.10;99.90;;;;;;5008930;28;20385;-79
2022/03/16 00:48:46;;;;;;;41.65;25.08;;;4.00;99.90;;;;;;5008392;28;20042;-78
2022/03/16 00:51:12;;;;;;;45.50;25.20;;;4.00;99.90;;;;;;5007103;28;20034;-78
2022/03/16 00:53:39;;;;;;;42.83;24.92;;;3.90;99.90;;;;;;5009840;28;20405;-79
2022/03/16 00:56:06;;;;;;;49.17;27.80;;;3.90;99.90;;;;;;5009657;28;20068;-79
2022/03/16 00:58:32;;;;;;;50.60;28.67;;;3.90;99.90;;;;;;5006043;28;21012;-79
2022/03/16 01:00:58;;;;;;;50.72;29.10;;;3.90;99.90;;;;;;5008243;28;20021;-78
2022/03/16 01:03:24;;;;;;;61.65;31.67;;;4.00;99.90;;;;;;5009236;28;20037;-78
2022/03/16 01:05:50;;;;;;;55.72;30.92;;;4.10;99.90;;;;;;5009890;28;20025;-78
2022/03/16 01:08:15;;;;;;;55.88;30.98;;;4.20;99.90;;;;;;5008382;28;20026;-79
2022/03/16 01:10:41;;;;;;;61.47;33.50;;;4.20;99.90;;;;;;5008227;28;20446;-79
2022/03/16 01:13:07;;;;;;;65.20;34.08;;;4.30;99.90;;;;;;5008290;28;20049;-78
2022/03/16 01:15:32;;;;;;;58.45;31.02;;;4.30;99.90;;;;;;5023828;28;20439;-78
2022/03/16 01:17:58;;;;;;;54.92;31.20;;;4.30;99.90;;;;;;5009471;28;20026;-79
2022/03/16 01:20:23;;;;;;;58.95;31.83;;;4.30;99.90;;;;;;5009605;28;20030;-79
2022/03/16 01:22:49;;;;;;;54.05;30.63;;;4.30;99.90;;;;;;5006244;28;20034;-79
2022/03/16 01:25:14;;;;;;;57.53;31.40;;;4.30;99.90;;;;;;5008638;28;20072;-78
2022/03/16 01:27:40;;;;;;;58.50;31.98;;;4.30;99.90;;;;;;5023999;28;20037;-79
2022/03/16 01:30:07;;;;;;;58.13;32.88;;;4.30;99.90;;;;;;5006853;28;20076;-78
2022/03/16 01:32:32;;;;;;;59.30;33.13;;;4.30;99.90;;;;;;5008996;28;20497;-79
2022/03/16 01:34:58;;;;;;;63.03;34.80;;;4.40;99.90;;;;;;5008124;28;20045;-78
2022/03/16 01:37:23;;;;;;;55.05;31.10;;;4.40;99.90;;;;;;5008678;28;20482;-79
2022/03/16 01:39:49;;;;;;;52.65;30.00;;;4.40;99.90;;;;;;5009184;28;20029;-79
2022/03/16 01:42:15;;;;;;;60.45;32.15;;;4.30;99.90;;;;;;5022748;28;20025;-78
2022/03/16 01:44:41;;;;;;;63.80;32.78;;;4.30;99.90;;;;;;5012774;28;20742;-79
2022/03/16 01:47:06;;;;;;;59.22;31.70;;;4.30;99.90;;;;;;5011445;28;20030;-79
2022/03/16 01:49:32;;;;;;;61.15;32.88;;;4.30;99.90;;;;;;5012080;28;20104;-78
2022/03/16 01:51:58;;;;;;;59.33;34.50;;;4.40;99.90;;;;;;5013390;28;20045;-80
2022/03/16 01:54:23;;;;;;;58.92;33.42;;;4.40;99.90;;;;;;5012573;28;20547;-79
2022/03/16 01:56:49;;;;;;;62.70;34.40;;;4.40;99.90;;;;;;5012028;28;20113;-79
2022/03/16 01:59:14;;;;;;;60.38;33.15;;;4.40;99.90;;;;;;5010794;28;20072;-77
2022/03/16 02:01:40;;;;;;;57.75;33.63;;;4.40;99.90;;;;;;5010177;28;20034;-79
2022/03/16 02:04:05;;;;;;;61.60;34.95;;;4.40;99.90;;;;;;5010793;28;20156;-79
2022/03/16 02:06:32;;;;;;;65.60;35.20;;;4.40;99.90;;;;;;5012697;28;20478;-79
2022/03/16 02:08:58;;;;;;;64.05;36.85;;;4.40;99.90;;;;;;5013169;28;20394;-78
2022/03/16 02:11:23;;;;;;;60.35;34.88;;;4.40;99.90;;;;;;5011752;28;20034;-78
2022/03/16 02:13:49;;;;;;;56.38;35.58;;;4.30;99.90;;;;;;5012084;28;20050;-79
2022/03/16 02:16:14;;;;;;;56.35;33.72;;;4.30;99.90;;;;;;5011710;28;20049;-77
2022/03/16 02:18:40;;;;;;;59.33;34.05;;;4.30;99.90;;;;;;5012534;28;20115;-79
2022/03/16 02:21:06;;;;;;;60.38;34.15;;;4.30;99.90;;;;;;5010730;28;20056;-79
2022/03/16 02:23:32;;;;;;;60.20;34.50;;;4.30;99.90;;;;;;5025640;28;20036;-78
2022/03/16 02:25:58;;;;;;;62.28;34.83;;;4.30;99.90;;;;;;5011897;28;20026;-79
2022/03/16 02:28:24;;;;;;;55.33;32.95;;;4.30;99.90;;;;;;5011521;28;20029;-79
2022/03/16 02:30:50;;;;;;;50.40;32.30;;;4.20;99.90;;;;;;5008735;28;20026;-78
2022/03/16 02:33:16;;;;;;;51.55;33.45;;;4.30;99.90;;;;;;5010712;28;20125;-79
2022/03/16 02:35:42;;;;;;;52.78;30.73;;;4.30;99.90;;;;;;5011413;28;20084;-78
2022/03/16 02:38:08;;;;;;;51.78;32.55;;;4.30;99.90;;;;;;5010879;28;20080;-78
2022/03/16 02:40:34;;;;;;;55.20;32.97;;;4.30;99.90;;;;;;5009603;28;20052;-78
2022/03/16 02:43:00;;;;;;;55.72;31.27;;;4.30;99.90;;;;;;5012077;28;20025;-78
2022/03/16 02:45:27;;;;;;;48.88;30.65;;;4.20;99.90;;;;;;5010733;28;20033;-78
2022/03/16 02:47:52;;;;;;;51.33;30.63;;;4.20;99.90;;;;;;5011518;28;20363;-78
2022/03/16 02:50:18;;;;;;;54.80;33.28;;;4.20;99.90;;;;;;5009935;28;20046;-79
2022/03/16 02:52:44;;;;;;;49.85;29.73;;;4.20;99.90;;;;;;5010817;28;20378;-78
2022/03/16 02:55:10;;;;;;;48.55;29.50;;;4.10;99.90;;;;;;5010716;28;20053;-79
2022/03/16 02:57:36;;;;;;;50.47;29.98;;;4.10;99.90;;;;;;5010625;28;20405;-79
2022/03/16 03:00:07;;;;;;;49.08;30.52;;;4.10;99.90;;;;;;5009667;28;20474;-78
2022/03/16 03:02:33;;;;;;;48.42;28.38;;;4.00;99.90;;;;;;5009509;28;20065;-79
2022/03/16 03:04:59;;;;;;;51.42;29.83;;;4.00;99.90;;;;;;5010252;28;20421;-79
2022/03/16 03:07:24;;;;;;;55.05;29.63;;;3.90;99.90;;;;;;5011497;28;20060;-79
2022/03/16 03:09:50;;;;;;;51.80;30.48;;;3.80;99.90;;;;;;5010084;28;20034;-78
2022/03/16 03:12:15;;;;;;;51.20;30.83;;;3.90;99.90;;;;;;5010431;28;20041;-78
2022/03/16 03:14:41;;;;;;;53.75;30.33;;;3.90;99.90;;;;;;5026760;28;20049;-78
2022/03/16 03:17:07;;;;;;;46.78;30.17;;;3.90;99.90;;;;;;5010653;28;20058;-78
2022/03/16 03:19:33;;;;;;;49.78;29.77;;;4.00;99.90;;;;;;5010819;28;20033;-79
2022/03/16 03:21:58;;;;;;;48.08;28.75;;;4.00;99.90;;;;;;5010046;28;20034;-78
2022/03/16 03:24:24;;;;;;;48.28;29.55;;;4.00;99.90;;;;;;5006917;28;20044;-78
2022/03/16 03:26:50;;;;;;;52.58;29.65;;;3.90;99.90;;;;;;5009273;28;20022;-78
2022/03/16 03:29:16;;;;;;;45.33;27.83;;;3.90;99.90;;;;;;5009323;28;20104;-80
2022/03/16 03:31:42;;;;;;;44.92;28.85;;;3.80;99.90;;;;;;5009025;28;20528;-79
2022/03/16 03:34:08;;;;;;;49.03;29.90;;;3.90;99.90;;;;;;5008620;28;20096;-78
2022/03/16 03:36:33;;;;;;;47.83;29.02;;;3.90;99.90;;;;;;5010612;28;20410;-79
2022/03/16 03:38:59;;;;;;;51.13;30.48;;;3.90;99.90;;;;;;5010764;28;20048;-79
2022/03/16 03:41:25;;;;;;;49.90;29.13;;;3.90;99.90;;;;;;5008746;28;20030;-78
2022/03/16 03:43:50;;;;;;;48.08;28.52;;;3.90;99.90;;;;;;5009214;28;20040;-79
2022/03/16 03:46:16;;;;;;;51.20;29.52;;;3.90;99.90;;;;;;5008814;28;20025;-78
2022/03/16 03:48:42;;;;;;;54.38;30.85;;;3.90;99.90;;;;;;5011283;28;20041;-79
2022/03/16 03:51:07;;;;;;;46.83;27.90;;;3.90;99.90;;;;;;5009830;28;20073;-79
2022/03/16 03:53:33;;;;;;;45.00;26.92;;;3.90;99.90;;;;;;5009420;28;20042;-78
2022/03/16 03:55:59;;;;;;;47.55;28.90;;;3.90;99.90;;;;;;5008783;28;20038;-78
2022/03/16 03:58:25;;;;;;;43.47;26.73;;;3.90;99.90;;;;;;5023271;28;20197;-78
2022/03/16 04:00:50;;;;;;;45.33;26.73;;;3.90;99.90;;;;;;5008341;28;20448;-79
2022/03/16 04:03:16;;;;;;;49.38;27.95;;;3.90;99.90;;;;;;5010019;28;20026;-79
2022/03/16 04:05:42;;;;;;;43.95;27.35;;;3.90;99.90;;;;;;5008430;28;20096;-79
2022/03/16 04:08:07;;;;;;;49.42;28.13;;;3.80;99.90;;;;;;5008045;28;20022;-78
2022/03/16 04:10:36;;;;;;;47.40;27.00;;;3.80;99.90;;;;;;5010049;28;20022;-79
2022/03/16 04:13:05;;;;;;;43.50;26.90;;;3.80;99.90;;;;;;5008106;28;20021;-78
2022/03/16 04:15:31;;;;;;;45.15;27.30;;;3.80;99.90;;;;;;5010939;28;20042;-79
2022/03/16 04:17:56;;;;;;;43.58;26.60;;;3.80;99.90;;;;;;5008342;28;20029;-79
2022/03/16 04:20:22;;;;;;;47.78;27.35;;;3.80;99.90;;;;;;5007999;28;20544;-78
2022/03/16 04:22:48;;;;;;;51.10;29.30;;;3.80;99.90;;;;;;5009787;28;20065;-79
2022/03/16 04:25:13;;;;;;;45.72;27.35;;;3.70;99.90;;;;;;5007214;28;20037;-79
2022/03/16 04:27:39;;;;;;;48.97;29.20;;;3.70;99.90;;;;;;5008647;28;20048;-78
2022/03/16 04:30:05;;;;;;;44.03;27.00;;;3.60;99.90;;;;;;5005774;28;20390;-78
2022/03/16 04:32:30;;;;;;;50.75;28.77;;;3.60;99.90;;;;;;5008543;28;20027;-78
2022/03/16 04:34:56;;;;;;;47.30;26.30;;;3.60;99.90;;;;;;5011461;28;20446;-78
2022/03/16 04:37:22;;;;;;;51.90;29.50;;;3.60;99.90;;;;;;5009058;28;20030;-78
2022/03/16 04:39:48;;;;;;;53.80;29.73;;;3.50;99.90;;;;;;5009993;28;20034;-78
2022/03/16 04:42:13;;;;;;;52.60;29.65;;;3.50;99.90;;;;;;5008152;28;21869;-78
2022/03/16 04:44:39;;;;;;;50.10;28.95;;;3.50;99.90;;;;;;5009649;28;20033;-78
2022/03/16 04:47:05;;;;;;;45.70;27.35;;;3.40;99.90;;;;;;5008568;28;20462;-79
2022/03/16 04:49:30;;;;;;;49.72;29.02;;;3.40;99.90;;;;;;5009838;28;20609;-79
2022/03/16 04:51:56;;;;;;;49.28;29.27;;;3.40;99.90;;;;;;5009144;28;20108;-79
2022/03/16 04:54:21;;;;;;;48.25;27.38;;;3.40;99.90;;;;;;5009056;28;20042;-78
2022/03/16 04:56:47;;;;;;;50.40;28.70;;;3.40;99.90;;;;;;5009685;28;20385;-79
2022/03/16 04:59:13;;;;;;;51.10;26.98;;;3.40;99.90;;;;;;5009417;28;20175;-78
2022/03/16 05:01:38;;;;;;;54.90;28.88;;;3.40;99.90;;;;;;5008147;28;20029;-78
2022/03/16 05:04:04;;;;;;;50.50;26.90;;;3.50;99.90;;;;;;5008148;28;20389;-79
2022/03/16 05:06:29;;;;;;;47.42;26.85;;;3.50;99.90;;;;;;5009450;28;20054;-79
2022/03/16 05:08:55;;;;;;;52.80;28.63;;;3.50;99.90;;;;;;5009585;28;20041;-79
2022/03/16 05:11:22;;;;;;;53.83;28.52;;;3.60;99.90;;;;;;5007491;28;20030;-78
2022/03/16 05:13:49;;;;;;;54.22;28.95;;;3.60;99.90;;;;;;5009068;28;20371;-79
2022/03/16 05:16:14;;;;;;;53.05;29.85;;;3.70;99.90;;;;;;5009068;28;20058;-79
2022/03/16 05:18:43;;;;;;;51.08;27.73;;;3.70;99.90;;;;;;5012038;28;20065;-79
2022/03/16 05:21:09;;;;;;;47.20;28.17;;;3.80;99.90;;;;;;5024991;28;20061;-78
2022/03/16 05:23:35;;;;;;;47.15;26.83;;;3.80;99.90;;;;;;5008660;28;20389;-78
2022/03/16 05:26:01;;;;;;;47.15;27.02;;;3.80;99.90;;;;;;5014220;28;20037;-78
2022/03/16 05:28:27;;;;;;;46.53;27.88;;;3.80;99.90;;;;;;5015232;28;20026;-79
2022/03/16 05:30:52;;;;;;;48.60;27.13;;;3.80;99.90;;;;;;5010373;28;20038;-79
2022/03/16 05:33:18;;;;;;;46.42;27.20;;;3.80;99.90;;;;;;5008673;28;20033;-78
2022/03/16 05:35:43;;;;;;;47.15;26.92;;;3.80;99.90;;;;;;5012651;28;20042;-79
2022/03/16 05:38:12;;;;;;;47.40;25.67;;;3.80;99.90;;;;;;5011020;28;20766;-79
2022/03/16 05:40:39;;;;;;;40.13;23.67;;;3.90;99.90;;;;;;5009676;28;20033;-78
2022/03/16 05:43:04;;;;;;;44.42;24.95;;;3.80;99.90;;;;;;5008904;28;20022;-78
2022/03/16 05:45:30;;;;;;;39.55;24.27;;;3.90;99.90;;;;;;5010244;28;20037;-78
2022/03/16 05:47:56;;;;;;;40.30;23.98;;;3.90;99.90;;;;;;5010037;28;20033;-78
2022/03/16 05:50:22;;;;;;;38.90;23.35;;;3.90;99.90;;;;;;5009891;28;20050;-78
2022/03/16 05:52:47;;;;;;;43.58;25.00;;;4.00;99.90;;;;;;5004635;28;21639;-77
2022/03/16 05:55:13;;;;;;;43.65;23.08;;;4.00;99.90;;;;;;5005377;28;20042;-78
2022/03/16 05:57:40;;;;;;;30.42;18.95;;;4.00;99.90;;;;;;5005944;28;20072;-77
2022/03/16 06:00:07;;;;;;;33.63;20.80;;;4.00;99.90;;;;;;5007647;28;20084;-78
2022/03/16 06:02:33;;;;;;;37.13;20.55;;;4.10;99.90;;;;;;5010351;28;20054;-79
2022/03/16 06:04:58;;;;;;;39.45;20.45;;;4.10;99.90;;;;;;5012839;28;20051;-78
2022/03/16 06:07:24;;;;;;;37.75;20.67;;;4.10;99.90;;;;;;5007557;28;20026;-77
2022/03/16 06:09:49;;;;;;;38.58;18.95;;;4.10;99.90;;;;;;5025753;28;20035;-76
2022/03/16 06:12:15;;;;;;;33.97;18.95;;;4.20;99.90;;;;;;5010410;28;20033;-77
2022/03/16 06:14:40;;;;;;;33.17;17.45;;;4.20;99.90;;;;;;5009024;28;20042;-76
2022/03/16 06:17:06;;;;;;;32.30;16.60;;;4.30;99.90;;;;;;5007214;28;20049;-78
2022/03/16 06:19:31;;;;;;;29.30;17.20;;;4.40;99.90;;;;;;5010885;28;20076;-79
2022/03/16 06:21:57;;;;;;;28.25;16.33;;;4.40;99.90;;;;;;5011267;28;20018;-79
2022/03/16 06:24:22;;;;;;;24.65;14.93;;;4.40;99.90;;;;;;5008580;28;20580;-79
2022/03/16 06:26:48;;;;;;;26.45;14.95;;;4.40;99.90;;;;;;5011651;28;20496;-79
2022/03/16 06:29:13;;;;;;;27.00;15.02;;;4.40;99.90;;;;;;5011540;28;20092;-79
2022/03/16 06:31:39;;;;;;;24.80;14.10;;;4.50;99.90;;;;;;5005022;28;20036;-78
2022/03/16 06:34:04;;;;;;;24.63;14.38;;;4.50;99.90;;;;;;5011671;28;20042;-78
2022/03/16 06:36:30;;;;;;;24.77;13.50;;;4.50;99.90;;;;;;5009896;28;20401;-79
2022/03/16 06:38:56;;;;;;;24.15;13.70;;;4.60;99.90;;;;;;5017345;28;20036;-78
2022/03/16 06:41:22;;;;;;;27.60;13.57;;;4.70;99.90;;;;;;5009095;28;20092;-78
2022/03/16 06:43:48;;;;;;;24.20;13.95;;;4.70;99.90;;;;;;5013439;28;20477;-79
2022/03/16 06:46:14;;;;;;;21.50;13.35;;;4.80;99.90;;;;;;5005403;28;20025;-79
2022/03/16 06:48:40;;;;;;;25.92;13.77;;;4.90;99.90;;;;;;5004952;28;20092;-79
2022/03/16 06:51:06;;;;;;;22.30;13.52;;;5.00;99.90;;;;;;5013076;28;20044;-79
2022/03/16 06:53:31;;;;;;;22.70;12.32;;;5.10;99.90;;;;;;5012285;28;20104;-79
2022/03/16 06:55:57;;;;;;;23.85;13.07;;;5.20;99.90;;;;;;5012694;28;20034;-79
2022/03/16 06:58:22;;;;;;;21.48;11.82;;;5.30;99.90;;;;;;5004906;28;20577;-78
2022/03/16 07:00:48;;;;;;;21.70;11.90;;;5.40;99.90;;;;;;5021876;28;20030;-79
2022/03/16 07:03:14;;;;;;;21.08;11.20;;;5.50;99.90;;;;;;5013405;28;20038;-78
2022/03/16 07:05:41;;;;;;;24.00;12.02;;;5.60;99.90;;;;;;5006584;28;20021;-79
2022/03/16 07:08:09;;;;;;;17.42;10.65;;;5.70;99.90;;;;;;5017103;28;20033;-79
2022/03/16 07:10:36;;;;;;;24.48;11.93;;;5.80;99.90;;;;;;5013457;28;20034;-79
2022/03/16 07:13:02;;;;;;;20.65;11.60;;;5.90;99.90;;;;;;5012873;28;20028;-79
2022/03/16 07:15:30;;;;;;;19.02;9.98;;;6.10;99.90;;;;;;5020397;28;20120;-79
2022/03/16 07:17:56;;;;;;;17.58;10.30;;;6.20;99.90;;;;;;5015236;28;20037;-79
2022/03/16 07:20:22;;;;;;;18.70;10.25;;;6.30;99.90;;;;;;5024457;28;20041;-79
2022/03/16 07:23:02;;;;;;;18.80;10.15;;;6.40;99.90;;;;;;5016042;28;20026;-79
2022/03/16 07:25:27;;;;;;;19.58;10.52;;;6.50;99.90;;;;;;5020619;28;20014;-79
2022/03/16 07:27:53;;;;;;;14.90;8.93;;;6.60;99.90;;;;;;5013179;28;20393;-79
2022/03/16 07:30:18;;;;;;;16.02;9.30;;;6.80;99.90;;;;;;5013092;28;20018;-79
2022/03/16 07:32:44;;;;;;;16.67;9.23;;;6.90;99.90;;;;;;5019334;28;20065;-79
2022/03/16 07:35:09;;;;;;;18.58;10.05;;;7.10;99.90;;;;;;5009445;28;20030;-79
2022/03/16 07:37:36;;;;;;;18.08;9.02;;;7.20;99.90;;;;;;5018062;28;20053;-79
2022/03/16 07:40:03;;;;;;;22.20;10.45;;;7.40;99.90;;;;;;5021111;28;20066;-79
2022/03/16 07:42:30;;;;;;;17.95;8.63;;;7.50;99.90;;;;;;5009159;28;20046;-79
2022/03/16 07:44:56;;;;;;;12.38;7.40;;;7.60;99.90;;;;;;5008248;28;20062;-79
2022/03/16 07:47:24;;;;;;;15.60;8.82;;;7.70;99.90;;;;;;5012634;28;20402;-80
2022/03/16 07:49:50;;;;;;;14.38;8.40;;;7.80;99.90;;;;;;5015486;28;20489;-79
2022/03/16 07:52:16;;;;;;;18.75;8.45;;;7.90;99.90;;;;;;5014061;28;20113;-80
2022/03/16 07:54:41;;;;;;;19.70;9.02;;;8.00;99.90;;;;;;5014505;28;20078;-79
2022/03/16 07:57:07;;;;;;;15.70;9.13;;;8.10;99.90;;;;;;5008520;28;20385;-79
2022/03/16 07:59:33;;;;;;;14.82;8.25;;;8.20;99.90;;;;;;5014027;28;20075;-79
2022/03/16 08:01:59;;;;;;;13.00;8.43;;;8.30;99.90;;;;;;5009439;28;20029;-79
2022/03/16 08:04:24;;;;;;;15.60;8.32;;;8.40;99.90;;;;;;5022074;28;20030;-78
2022/03/16 08:06:50;;;;;;;11.80;7.68;;;8.60;99.90;;;;;;5020097;28;20018;-78
2022/03/16 08:09:16;;;;;;;13.75;8.15;;;8.70;99.90;;;;;;5019334;28;20038;-77
2022/03/16 08:11:41;;;;;;;16.17;8.32;;;8.80;99.90;;;;;;5010175;28;20064;-78
2022/03/16 08:14:07;;;;;;;15.68;9.20;;;8.90;99.90;;;;;;5011432;28;20131;-77
2022/03/16 08:16:32;;;;;;;13.65;8.25;;;9.00;99.90;;;;;;5022930;28;20364;-78
2022/03/16 08:18:58;;;;;;;13.65;9.10;;;9.20;99.90;;;;;;5010276;28;20168;-77
2022/03/16 08:21:23;;;;;;;20.02;9.18;;;9.20;99.90;;;;;;5008336;28;20022;-78
2022/03/16 08:23:49;;;;;;;14.43;8.18;;;9.20;99.90;;;;;;5013900;28;20030;-78
2022/03/16 08:26:16;;;;;;;15.48;9.95;;;9.20;99.90;;;;;;5014510;28;20049;-77
2022/03/16 08:28:42;;;;;;;17.33;9.40;;;9.20;99.90;;;;;;5011887;28;20264;-78
2022/03/16 08:31:08;;;;;;;13.50;9.02;;;9.10;99.90;;;;;;5030452;28;20095;-77
2022/03/16 08:33:33;;;;;;;16.10;9.13;;;9.10;99.90;;;;;;5015079;28;20481;-79
2022/03/16 08:36:01;;;;;;;18.08;10.25;;;9.10;99.90;;;;;;5022566;28;20079;-79
2022/03/16 08:38:30;;;;;;;15.82;9.82;;;9.10;99.90;;;;;;5017820;28;20033;-79
2022/03/16 08:40:56;;;;;;;16.13;9.30;;;9.20;99.90;;;;;;5015227;28;20044;-78
2022/03/16 08:43:21;;;;;;;18.17;10.93;;;9.20;99.90;;;;;;5000867;28;20053;-79
2022/03/16 08:45:47;;;;;;;16.17;9.50;;;9.20;99.90;;;;;;5014151;28;20053;-79
2022/03/16 08:48:14;;;;;;;13.50;9.38;;;9.30;99.90;;;;;;5009351;28;20422;-79
2022/03/16 08:50:40;;;;;;;18.23;10.45;;;9.40;99.90;;;;;;5007940;28;20038;-79
2022/03/16 08:53:13;;;;;;;17.98;10.73;;;9.40;99.90;;;;;;5011849;28;20030;-79
2022/03/16 08:55:38;;;;;;;12.98;8.65;;;9.50;99.90;;;;;;4999027;28;20050;-79
2022/03/16 08:58:04;;;;;;;17.95;10.20;;;9.60;99.90;;;;;;5007950;28;20524;-77
2022/03/16 09:00:29;;;;;;;18.58;9.93;;;9.60;99.90;;;;;;5010247;28;20079;-77
2022/03/16 09:02:56;;;;;;;15.88;9.85;;;9.60;99.90;;;;;;5008420;28;20042;-78
2022/03/16 09:05:22;;;;;;;14.02;9.63;;;9.60;99.90;;;;;;5010684;28;20024;-78
2022/03/16 09:07:48;;;;;;;16.58;10.45;;;9.60;99.90;;;;;;5004883;28;20022;-77
2022/03/16 09:10:16;;;;;;;14.07;9.38;;;9.60;99.90;;;;;;5008808;28;20033;-77
2022/03/16 09:12:42;;;;;;;13.48;9.25;;;9.60;99.90;;;;;;5009499;28;20164;-78
2022/03/16 09:15:08;;;;;;;13.60;9.38;;;9.60;99.90;;;;;;5010222;28;20042;-77
2022/03/16 09:17:34;;;;;;;15.85;8.80;;;9.70;99.90;;;;;;5011232;28;20088;-78
2022/03/16 09:20:01;;;;;;;15.02;9.13;;;9.90;99.90;;;;;;5012110;28;20033;-78
2022/03/16 09:22:27;;;;;;;12.60;8.95;;;10.10;99.90;;;;;;5011582;28;20022;-78
2022/03/16 09:24:53;;;;;;;12.70;8.50;;;10.20;99.90;;;;;;5012209;28;20127;-78
2022/03/16 09:27:19;;;;;;;13.63;8.90;;;10.30;99.90;;;;;;5011493;28;20474;-78
2022/03/16 09:29:46;;;;;;;14.73;9.15;;;10.40;99.90;;;;;;5012214;28;20081;-78
2022/03/16 09:32:12;;;;;;;14.30;9.43;;;10.40;99.90;;;;;;5010472;28;20044;-78
2022/03/16 09:34:40;;;;;;;16.48;10.35;;;10.50;99.90;;;;;;5011968;28;20111;-78
2022/03/16 09:37:05;;;;;;;12.20;8.85;;;10.50;99.90;;;;;;5011518;28;20026;-78
2022/03/16 09:39:31;;;;;;;13.50;9.40;;;10.70;99.90;;;;;;5011485;28;20030;-77
2022/03/16 09:41:57;;;;;;;14.30;9.38;;;10.70;99.90;;;;;;5011432;28;20024;-78
2022/03/16 09:44:30;;;;;;;14.70;9.20;;;10.80;99.90;;;;;;5011308;28;20034;-78
2022/03/16 09:46:57;;;;;;;12.85;9.35;;;10.80;99.90;;;;;;5011902;28;20026;-78
2022/03/16 09:49:26;;;;;;;12.93;8.95;;;10.80;99.90;;;;;;5011561;28;20053;-78
2022/03/16 09:51:53;;;;;;;14.90;9.02;;;10.90;99.90;;;;;;5008961;28;20041;-78
2022/03/16 09:54:19;;;;;;;17.05;9.88;;;11.00;99.90;;;;;;5011023;28;20087;-78
2022/03/16 09:56:46;;;;;;;12.93;9.23;;;11.10;99.90;;;;;;5011003;28;20026;-78
2022/03/16 09:59:11;;;;;;;15.90;9.30;;;11.20;99.90;;;;;;5008467;28;20038;-78
2022/03/16 10:01:37;;;;;;;15.43;10.73;;;11.30;99.90;;;;;;5010813;28;20088;-78
2022/03/16 10:04:05;;;;;;;15.32;9.57;;;11.40;99.90;;;;;;5010954;28;20102;-77
2022/03/16 10:06:31;;;;;;;14.05;9.52;;;11.40;99.90;;;;;;5015299;28;20061;-78
2022/03/16 10:14:24;;;;;;;12.43;8.85;;;11.60;99.90;;;;;;5014961;28;20056;-78
2022/03/16 10:19:52;;;;;;;12.88;8.35;;;11.90;99.90;;;;;;5015202;28;20037;-77
2022/03/16 10:22:30;;;;;;;12.15;8.60;;;12.00;99.60;;;;;;5014321;28;20034;-78
2022/03/16 10:25:10;;;;;;;12.77;9.00;;;12.00;99.90;;;;;;5014987;28;20104;-78
2022/03/16 10:27:37;;;;;;;12.07;8.35;;;12.20;99.40;;;;;;5015021;28;20033;-78
2022/03/16 10:30:06;;;;;;;11.77;8.30;;;12.30;98.30;;;;;;5014900;28;20568;-78
2022/03/16 10:32:32;;;;;;;10.85;8.25;;;12.40;97.20;;;;;;5012748;28;20025;-78
2022/03/16 10:35:04;;;;;;;11.15;7.70;;;12.40;96.90;;;;;;5013793;28;20125;-78
2022/03/16 10:37:31;;;;;;;11.95;8.32;;;12.40;96.90;;;;;;5012260;28;20041;-78
2022/03/16 10:39:58;;;;;;;10.65;8.27;;;12.50;97.00;;;;;;5013416;28;20037;-77
2022/03/16 10:48:25;;;;;;;10.80;7.50;;;12.70;95.10;;;;;;5006389;28;20038;-79
2022/03/16 10:50:57;;;;;;;10.30;7.68;;;12.70;94.80;;;;;;5005789;28;20049;-79
2022/03/16 10:53:28;;;;;;;14.05;7.28;;;12.80;94.50;;;;;;5010528;28;20073;-78
2022/03/16 10:55:57;;;;;;;12.52;7.80;;;12.80;94.10;;;;;;5012054;28;20065;-79
2022/03/16 10:58:24;;;;;;;10.23;7.50;;;12.80;93.60;;;;;;5010618;28;20389;-79
2022/03/16 11:00:52;;;;;;;12.40;8.38;;;12.90;93.40;;;;;;5000262;28;20037;-79
2022/03/16 11:03:22;;;;;;;11.52;8.00;;;12.90;93.10;;;;;;5011730;28;20433;-79
2022/03/16 11:05:48;;;;;;;11.63;7.15;;;12.90;92.80;;;;;;5008708;28;20155;-77
2022/03/16 11:08:14;;;;;;;11.82;8.23;;;12.90;92.80;;;;;;5012626;28;20109;-79
2022/03/16 11:10:41;;;;;;;11.93;7.95;;;12.90;92.50;;;;;;5013076;28;20041;-80
2022/03/16 11:15:58;;;;;;;11.63;8.38;;;13.00;92.20;;;;;;5009777;28;20555;-79
2022/03/16 11:18:24;;;;;;;12.73;8.70;;;13.00;91.70;;;;;;5008654;28;20030;-79
2022/03/16 11:20:53;;;;;;;9.98;7.53;;;13.00;91.90;;;;;;5013130;28;20094;-79
2022/03/16 11:26:26;;;;;;;13.13;8.10;;;13.10;91.30;;;;;;5013013;28;20072;-78
2022/03/16 11:29:11;;;;;;;10.88;7.78;;;13.10;91.20;;;;;;4994181;28;20114;-78
2022/03/16 11:31:38;;;;;;;13.15;9.00;;;13.10;91.00;;;;;;4997900;28;20525;-79
2022/03/16 11:34:05;;;;;;;10.05;7.60;;;13.00;90.70;;;;;;5009088;28;20038;-78
2022/03/16 11:36:37;;;;;;;10.40;7.90;;;13.00;91.00;;;;;;5007639;28;20632;-78
2022/03/16 11:39:14;;;;;;;10.73;8.13;;;13.00;91.00;;;;;;5010978;28;20141;-80
2022/03/16 11:41:53;;;;;;;20.50;8.57;;;13.10;91.40;;;;;;5012618;28;20034;-79
2022/03/16 11:44:25;;;;;;;12.23;8.10;;;13.20;91.30;;;;;;5010067;28;20030;-79
2022/03/16 11:47:15;;;;;;;12.77;8.03;;;13.30;91.10;;;;;;5012857;28;20026;-79
2022/03/16 11:49:45;;;;;;;9.93;7.70;;;13.30;91.20;;;;;;5003468;28;20370;-79
2022/03/16 11:52:11;;;;;;;15.00;8.73;;;13.50;91.10;;;;;;5012814;28;20034;-79
2022/03/16 11:54:45;;;;;;;12.00;7.80;;;13.60;90.80;;;;;;5006402;28;20030;-80
2022/03/16 11:57:12;;;;;;;12.27;8.10;;;13.60;90.50;;;;;;5011474;28;20030;-78
2022/03/16 11:59:47;;;;;;;12.00;8.40;;;13.50;90.50;;;;;;5010712;28;20029;-78
2022/03/16 12:02:25;;;;;;;11.13;8.40;;;13.60;90.40;;;;;;4992955;28;20559;-80
2022/03/16 12:04:57;;;;;;;11.07;8.05;;;13.70;90.30;;;;;;5002179;28;20042;-80
2022/03/16 12:07:23;;;;;;;11.13;8.63;;;13.80;90.50;;;;;;5010417;28;20413;-80
2022/03/16 12:09:59;;;;;;;10.35;7.88;;;13.90;90.20;;;;;;5011298;28;20037;-81
2022/03/16 12:12:59;;;;;;;10.80;8.02;;;14.00;90.00;;;;;;5011084;28;20101;-79
2022/03/16 12:15:34;;;;;;;9.15;7.07;;;14.20;90.20;;;;;;5008179;28;20037;-80
2022/03/16 12:18:04;;;;;;;11.27;7.95;;;14.40;90.00;;;;;;5009414;28;20030;-79
2022/03/16 12:20:44;;;;;;;13.07;8.07;;;14.50;88.80;;;;;;5011080;28;20096;-79
2022/03/16 12:23:15;;;;;;;11.45;7.72;;;14.50;88.80;;;;;;5005905;28;20014;-80
2022/03/16 12:25:43;;;;;;;9.35;7.38;;;14.60;89.00;;;;;;5011390;28;20045;-81
2022/03/16 12:31:16;;;;;;;10.82;8.65;;;14.60;87.30;;;;;;5008228;28;20071;-79
2022/03/16 12:33:44;;;;;;;11.77;7.55;;;14.60;87.10;;;;;;5023865;28;20061;-81
2022/03/16 12:36:12;;;;;;;11.50;8.88;;;14.60;87.50;;;;;;5011005;28;20033;-81
2022/03/16 12:38:39;;;;;;;11.00;8.45;;;14.60;86.70;;;;;;5007050;28;20036;-81
2022/03/16 12:43:53;;;;;;;13.13;9.60;;;14.60;87.50;;;;;;4996503;28;20025;-81
2022/03/16 12:46:32;;;;;;;11.18;8.00;;;14.70;86.70;;;;;;5011369;28;20501;-81
2022/03/16 12:49:01;;;;;;;10.00;8.25;;;14.70;86.90;;;;;;5008788;28;20033;-79
2022/03/16 12:51:39;;;;;;;9.43;7.35;;;14.70;86.80;;;;;;5011242;28;20141;-80
2022/03/16 12:54:06;;;;;;;11.13;8.35;;;14.90;86.00;;;;;;5010818;28;20029;-81
2022/03/16 12:56:37;;;;;;;11.70;8.90;;;14.90;85.70;;;;;;5011660;28;20043;-80
2022/03/16 12:59:04;;;;;;;11.65;8.45;;;14.80;85.70;;;;;;5008967;28;20033;-80
2022/03/16 13:01:30;;;;;;;12.32;8.63;;;14.80;86.10;;;;;;5011543;28;20025;-80
2022/03/16 13:04:00;;;;;;;10.68;8.35;;;14.80;85.60;;;;;;5008984;28;20022;-80